Time;durP1;ratioP1;P1;durP2;ratioP2;P2;SDS_P1;SDS_P2;PMS_P1;PMS_P2;Temp;Humidity;BMP_temperature;BMP_pressure;BME280_temperature;BME280_humidity;BME280_pressure;Samples;Min_cycle;Max_cycle;Signal;HPM_P1;HPM_P2
2023/11/23 00:00:35;;;;;;;14.10;8.77;;;7.30;1.00;;;;;;5096049;28;20545;-81
2023/11/23 00:03:02;;;;;;;11.20;8.23;;;7.30;1.00;;;;;;5095044;28;20447;-80
2023/11/23 00:05:29;;;;;;;12.80;9.00;;;7.20;1.00;;;;;;5095537;28;20473;-81
2023/11/23 00:07:58;;;;;;;15.70;8.50;;;7.30;1.00;;;;;;5094336;28;21028;-78
2023/11/23 00:10:25;;;;;;;13.10;8.97;;;7.30;1.00;;;;;;5094486;28;20526;-79
2023/11/23 00:12:51;;;;;;;17.57;9.00;;;7.20;1.00;;;;;;5095061;28;20455;-80
2023/11/23 00:15:19;;;;;;;13.30;8.53;;;7.20;1.00;;;;;;5094981;28;20480;-80
2023/11/23 00:17:47;;;;;;;11.80;8.17;;;7.30;1.00;;;;;;5094987;28;20473;-80
2023/11/23 00:20:13;;;;;;;11.70;9.10;;;7.20;1.00;;;;;;5095477;28;20533;-81
2023/11/23 00:22:41;;;;;;;14.60;9.13;;;7.30;1.00;;;;;;5095004;28;20496;-80
2023/11/23 00:25:11;;;;;;;15.90;9.10;;;7.20;1.00;;;;;;5097088;28;20497;-80
2023/11/23 00:27:38;;;;;;;15.53;9.23;;;7.20;1.00;;;;;;5095522;28;21035;-81
2023/11/23 00:30:06;;;;;;;15.07;9.77;;;7.10;1.00;;;;;;5094691;28;20536;-80
2023/11/23 00:32:34;;;;;;;15.00;9.40;;;7.10;1.00;;;;;;5098956;28;20954;-80
2023/11/23 00:35:03;;;;;;;12.37;9.03;;;7.10;1.00;;;;;;5099727;28;20451;-81
2023/11/23 00:37:31;;;;;;;15.60;9.33;;;7.10;4.50;;;;;;5090746;28;20475;-80
2023/11/23 00:39:58;;;;;;;14.90;9.23;;;7.10;1.00;;;;;;5098294;28;20818;-81
2023/11/23 00:42:25;;;;;;;14.33;9.50;;;7.10;1.00;;;;;;5098648;28;20583;-81
2023/11/23 00:44:52;;;;;;;17.23;10.33;;;7.10;3.00;;;;;;5098947;28;20483;-82
2023/11/23 00:47:19;;;;;;;15.63;10.50;;;7.10;9.30;;;;;;5098702;28;20474;-80
2023/11/23 00:49:47;;;;;;;18.57;10.57;;;7.20;2.30;;;;;;5098217;28;20458;-80
2023/11/23 00:52:15;;;;;;;14.97;9.80;;;7.20;7.00;;;;;;5098784;28;20450;-80
2023/11/23 00:54:42;;;;;;;16.77;11.47;;;7.20;12.60;;;;;;5098622;28;20458;-79
2023/11/23 00:57:09;;;;;;;14.70;9.73;;;7.30;7.50;;;;;;5098533;28;20510;-81
2023/11/23 00:59:36;;;;;;;12.30;9.10;;;7.30;8.70;;;;;;5098208;28;20471;-80
2023/11/23 01:02:03;;;;;;;15.70;10.00;;;7.30;11.80;;;;;;5098229;28;20492;-81
2023/11/23 01:04:30;;;;;;;13.90;9.23;;;7.30;15.00;;;;;;5097844;28;20902;-81
2023/11/23 01:06:58;;;;;;;12.67;9.27;;;7.40;8.10;;;;;;5098089;28;20480;-82
2023/11/23 01:09:26;;;;;;;17.00;11.80;;;7.40;7.50;;;;;;5097862;28;20450;-81
2023/11/23 01:11:53;;;;;;;14.70;9.70;;;7.30;30.50;;;;;;5097896;28;20510;-81
2023/11/23 01:14:20;;;;;;;14.03;9.20;;;7.30;76.90;;;;;;5098202;28;20458;-79
2023/11/23 01:16:47;;;;;;;13.67;9.40;;;7.30;97.10;;;;;;5097456;28;20458;-81
2023/11/23 01:19:14;;;;;;;19.13;10.77;;;7.30;99.90;;;;;;5097490;28;20457;-80
2023/11/23 01:21:40;;;;;;;16.87;11.03;;;7.40;99.90;;;;;;5098711;28;20490;-78
2023/11/23 01:24:09;;;;;;;18.67;10.77;;;7.20;99.90;;;;;;5098745;28;20458;-80
2023/11/23 01:26:36;;;;;;;17.20;11.13;;;7.20;99.90;;;;;;5098282;28;20475;-80
2023/11/23 01:29:03;;;;;;;22.60;11.77;;;7.10;99.90;;;;;;5097559;28;20861;-79
2023/11/23 01:31:33;;;;;;;17.23;10.70;;;7.00;99.90;;;;;;5097362;28;20455;-80
2023/11/23 01:33:59;;;;;;;16.90;10.13;;;7.00;99.90;;;;;;5097724;28;20454;-81
2023/11/23 01:36:27;;;;;;;15.97;10.10;;;7.10;99.90;;;;;;5098018;28;20716;-81
2023/11/23 01:38:54;;;;;;;18.13;9.70;;;7.00;99.90;;;;;;5096672;28;20449;-81
2023/11/23 01:41:22;;;;;;;17.47;12.20;;;7.00;99.90;;;;;;5098402;28;20527;-81
2023/11/23 01:43:49;;;;;;;20.50;11.07;;;7.00;99.90;;;;;;5097139;28;20828;-80
2023/11/23 01:46:16;;;;;;;32.63;16.23;;;7.10;99.90;;;;;;5097212;28;20482;-79
2023/11/23 01:48:44;;;;;;;16.40;10.83;;;7.00;99.90;;;;;;5097157;28;20462;-80
2023/11/23 01:51:13;;;;;;;18.40;11.33;;;7.10;99.90;;;;;;5097476;28;20462;-81
2023/11/23 01:53:41;;;;;;;17.27;11.40;;;7.00;99.90;;;;;;5094588;28;20455;-80
2023/11/23 01:56:11;;;;;;;20.27;11.80;;;7.00;99.90;;;;;;5098262;28;20474;-81
2023/11/23 01:58:39;;;;;;;21.40;13.53;;;7.00;99.90;;;;;;5096613;28;20843;-80
2023/11/23 02:01:06;;;;;;;23.60;11.57;;;7.00;99.90;;;;;;5098077;28;20456;-81
2023/11/23 02:03:33;;;;;;;19.00;11.73;;;7.00;99.90;;;;;;5097630;28;20454;-81
2023/11/23 02:06:00;;;;;;;19.17;11.90;;;7.00;99.90;;;;;;5089634;28;20480;-80
2023/11/23 02:08:27;;;;;;;18.83;12.00;;;7.00;99.90;;;;;;5097189;28;20450;-81
2023/11/23 02:10:54;;;;;;;21.07;12.70;;;7.10;99.90;;;;;;5097365;28;20464;-80
2023/11/23 02:13:21;;;;;;;24.33;14.53;;;7.00;99.90;;;;;;5097421;28;20454;-80
2023/11/23 02:15:49;;;;;;;25.63;11.90;;;7.00;99.90;;;;;;5097394;28;20460;-81
2023/11/23 02:18:16;;;;;;;18.87;12.10;;;7.00;99.90;;;;;;5097224;28;20481;-80
2023/11/23 02:20:46;;;;;;;17.10;10.70;;;7.00;99.90;;;;;;5096856;28;20504;-81
2023/11/23 02:23:13;;;;;;;17.07;12.80;;;7.00;99.90;;;;;;5096739;28;20478;-80
2023/11/23 02:25:42;;;;;;;17.90;11.47;;;7.00;99.90;;;;;;5096187;28;20454;-80
2023/11/23 02:28:09;;;;;;;19.00;13.37;;;7.00;99.90;;;;;;5096313;28;21018;-80
2023/11/23 02:30:36;;;;;;;19.30;12.30;;;7.00;99.90;;;;;;5096344;28;20450;-82
2023/11/23 02:33:03;;;;;;;17.93;11.90;;;7.10;99.90;;;;;;5096724;28;20805;-79
2023/11/23 02:35:30;;;;;;;18.83;12.50;;;7.10;99.90;;;;;;5096617;28;20450;-81
2023/11/23 02:37:57;;;;;;;22.03;12.13;;;7.20;99.90;;;;;;5096439;28;20549;-80
2023/11/23 02:40:23;;;;;;;19.57;10.90;;;7.20;99.90;;;;;;5097032;28;20964;-81
2023/11/23 02:42:51;;;;;;;24.00;13.83;;;7.20;99.90;;;;;;5097946;28;20488;-81
2023/11/23 02:45:20;;;;;;;18.50;13.03;;;7.10;99.90;;;;;;5097589;28;20458;-81
2023/11/23 02:47:46;;;;;;;20.03;13.10;;;7.10;99.90;;;;;;5097088;28;20498;-82
2023/11/23 02:50:13;;;;;;;21.47;14.30;;;7.20;99.90;;;;;;5097524;28;20473;-82
2023/11/23 02:52:40;;;;;;;21.13;13.37;;;7.20;99.90;;;;;;5097069;28;20453;-82
2023/11/23 02:55:09;;;;;;;20.80;14.10;;;7.20;99.90;;;;;;5096370;28;20462;-81
2023/11/23 02:57:35;;;;;;;23.40;14.60;;;7.30;99.90;;;;;;5098173;28;20612;-80
2023/11/23 03:00:04;;;;;;;20.13;14.07;;;7.40;99.90;;;;;;5097415;28;20970;-82
2023/11/23 03:02:31;;;;;;;19.90;13.83;;;7.30;99.90;;;;;;5095889;28;20491;-82
2023/11/23 03:04:58;;;;;;;22.67;14.57;;;7.30;99.90;;;;;;5095988;28;20456;-81
2023/11/23 03:07:25;;;;;;;20.63;14.70;;;7.40;99.90;;;;;;5096767;28;20466;-81
2023/11/23 03:09:51;;;;;;;23.43;13.80;;;7.50;99.90;;;;;;5096367;28;20462;-81
2023/11/23 03:12:18;;;;;;;25.17;15.47;;;7.50;99.90;;;;;;5095723;28;20470;-81
2023/11/23 03:14:45;;;;;;;21.60;15.30;;;7.50;99.90;;;;;;5095864;28;20458;-81
2023/11/23 03:17:13;;;;;;;21.57;15.50;;;7.50;99.90;;;;;;5098627;28;20480;-81
2023/11/23 03:19:40;;;;;;;25.07;16.60;;;7.50;99.90;;;;;;5100062;28;20454;-80
2023/11/23 03:22:08;;;;;;;19.80;14.40;;;7.60;99.90;;;;;;5101960;28;20490;-82
2023/11/23 03:24:35;;;;;;;22.20;15.43;;;7.70;99.90;;;;;;5093490;28;20452;-80
2023/11/23 03:27:02;;;;;;;24.53;14.97;;;7.60;99.90;;;;;;5100053;28;20542;-80
2023/11/23 03:29:28;;;;;;;22.40;14.30;;;7.70;99.90;;;;;;5099873;28;20455;-79
2023/11/23 03:31:57;;;;;;;24.73;14.50;;;7.70;99.90;;;;;;5096586;28;20459;-81
2023/11/23 03:34:26;;;;;;;21.40;14.47;;;7.70;99.90;;;;;;5096899;28;20489;-82
2023/11/23 03:36:52;;;;;;;24.70;15.43;;;7.70;99.90;;;;;;5096581;28;20474;-82
2023/11/23 03:39:19;;;;;;;25.73;15.63;;;7.70;99.90;;;;;;5096139;28;20461;-81
2023/11/23 03:41:47;;;;;;;29.33;16.53;;;7.80;99.90;;;;;;5095535;28;20457;-80
2023/11/23 03:44:14;;;;;;;22.50;14.97;;;7.80;99.90;;;;;;5096424;28;20455;-81
2023/11/23 03:46:43;;;;;;;25.33;16.30;;;7.80;99.90;;;;;;5096552;28;20472;-81
2023/11/23 03:49:10;;;;;;;25.03;16.00;;;7.80;99.90;;;;;;5095154;28;20538;-81
2023/11/23 03:51:38;;;;;;;32.60;18.17;;;7.90;99.90;;;;;;5096014;28;20761;-81
2023/11/23 03:54:05;;;;;;;26.67;18.90;;;7.90;99.90;;;;;;5096695;28;20462;-81
2023/11/23 03:56:37;;;;;;;28.73;18.57;;;7.90;99.90;;;;;;5097503;28;20471;-80
2023/11/23 03:59:04;;;;;;;29.20;18.70;;;7.90;99.90;;;;;;5095616;28;20458;-79
2023/11/23 04:01:32;;;;;;;34.10;19.30;;;7.90;99.90;;;;;;5095256;28;20450;-80
2023/11/23 04:03:58;;;;;;;28.40;18.83;;;7.90;99.90;;;;;;5095003;28;20502;-81
2023/11/23 04:06:25;;;;;;;31.20;19.50;;;8.00;99.90;;;;;;5094806;28;20471;-81
2023/11/23 04:08:53;;;;;;;31.73;21.03;;;8.00;99.90;;;;;;5095096;28;20456;-80
2023/11/23 04:11:21;;;;;;;30.53;20.90;;;8.00;99.90;;;;;;5096659;28;20451;-81
2023/11/23 04:13:48;;;;;;;29.03;19.87;;;8.00;99.90;;;;;;5096875;28;20947;-81
2023/11/23 04:16:16;;;;;;;32.20;21.40;;;8.10;99.90;;;;;;5096665;28;20469;-80
2023/11/23 04:18:44;;;;;;;37.67;22.77;;;8.10;99.90;;;;;;5095188;28;20484;-81
2023/11/23 04:21:11;;;;;;;37.70;22.40;;;8.20;99.90;;;;;;5096469;28;20494;-79
2023/11/23 04:23:38;;;;;;;29.67;21.90;;;8.10;99.90;;;;;;5097281;28;20487;-81
2023/11/23 04:26:06;;;;;;;37.20;21.17;;;8.20;99.90;;;;;;5096533;28;20473;-80
2023/11/23 04:28:35;;;;;;;29.80;20.00;;;8.20;99.90;;;;;;5095897;28;20535;-81
2023/11/23 04:31:03;;;;;;;30.27;21.33;;;8.20;99.90;;;;;;5096039;28;20450;-80
2023/11/23 04:33:30;;;;;;;27.73;19.97;;;8.20;99.90;;;;;;5098080;28;21050;-81
2023/11/23 04:35:57;;;;;;;30.57;21.13;;;8.30;99.90;;;;;;5095159;28;20471;-82
2023/11/23 04:38:26;;;;;;;31.13;21.90;;;8.40;99.90;;;;;;5097050;28;20450;-84
2023/11/23 04:40:53;;;;;;;32.70;21.10;;;8.30;99.90;;;;;;5093928;28;20833;-81
2023/11/23 04:43:25;;;;;;;35.63;20.97;;;8.40;99.90;;;;;;5088254;28;21022;-81
2023/11/23 04:45:52;;;;;;;28.87;20.53;;;8.40;99.90;;;;;;5094614;28;20484;-82
2023/11/23 04:48:19;;;;;;;29.90;20.20;;;8.40;99.90;;;;;;5095165;28;20443;-82
2023/11/23 04:50:46;;;;;;;28.13;19.43;;;8.50;99.90;;;;;;5094123;28;20464;-82
2023/11/23 04:53:13;;;;;;;37.83;22.57;;;8.50;99.90;;;;;;5094154;28;20651;-81
2023/11/23 04:55:39;;;;;;;31.20;20.93;;;8.50;99.90;;;;;;5093033;28;20457;-82
2023/11/23 04:58:07;;;;;;;28.00;20.27;;;8.50;99.90;;;;;;5095302;28;20451;-81
2023/11/23 05:00:35;;;;;;;30.80;20.17;;;8.60;99.90;;;;;;5095007;28;20905;-81
2023/11/23 05:03:02;;;;;;;37.30;22.30;;;8.60;99.90;;;;;;5096051;28;20495;-82
2023/11/23 05:05:29;;;;;;;28.97;20.43;;;8.60;99.90;;;;;;5093225;28;20461;-82
2023/11/23 05:07:55;;;;;;;29.93;20.07;;;8.70;99.90;;;;;;5095903;28;20487;-81
2023/11/23 05:10:23;;;;;;;38.17;24.27;;;8.70;99.90;;;;;;5095812;28;20459;-84
2023/11/23 05:12:53;;;;;;;30.93;20.30;;;8.70;99.90;;;;;;5095023;28;20840;-84
2023/11/23 05:15:20;;;;;;;33.87;21.80;;;8.80;99.90;;;;;;5097727;28;20448;-83
2023/11/23 05:17:48;;;;;;;30.03;19.40;;;8.80;99.90;;;;;;5096619;28;20480;-84
2023/11/23 05:20:15;;;;;;;32.40;21.77;;;8.80;99.90;;;;;;5100172;28;20468;-81
2023/11/23 05:22:41;;;;;;;32.10;20.87;;;8.80;99.90;;;;;;5104089;28;20523;-81
2023/11/23 05:25:09;;;;;;;29.77;19.93;;;8.80;99.90;;;;;;5104884;28;20850;-81
2023/11/23 05:27:36;;;;;;;32.90;19.23;;;8.90;99.90;;;;;;5103109;28;20510;-81
2023/11/23 05:30:02;;;;;;;34.00;22.13;;;8.90;99.90;;;;;;5105027;28;20452;-82
2023/11/23 05:32:29;;;;;;;28.70;18.10;;;9.00;99.90;;;;;;5104516;28;20460;-82
2023/11/23 05:34:57;;;;;;;30.90;20.23;;;9.00;99.90;;;;;;5103059;28;20548;-81
2023/11/23 05:37:26;;;;;;;31.07;21.00;;;9.00;99.90;;;;;;5099598;28;20469;-80
2023/11/23 05:39:55;;;;;;;38.20;22.10;;;9.10;99.90;;;;;;5105834;28;20978;-81
2023/11/23 05:42:22;;;;;;;28.17;19.77;;;9.00;99.90;;;;;;5104670;28;20941;-82
2023/11/23 05:44:49;;;;;;;33.40;22.27;;;9.00;99.90;;;;;;5101863;28;20540;-82
2023/11/23 05:47:16;;;;;;;28.30;20.40;;;9.00;99.90;;;;;;5103993;28;20513;-80
2023/11/23 05:49:43;;;;;;;30.23;20.67;;;9.00;99.90;;;;;;5102905;28;20488;-82
2023/11/23 05:52:11;;;;;;;31.47;21.83;;;9.00;99.90;;;;;;5104330;28;20462;-82
2023/11/23 05:54:40;;;;;;;30.13;22.53;;;9.00;99.90;;;;;;5105622;28;20452;-82
2023/11/23 05:57:07;;;;;;;30.50;21.10;;;9.00;99.90;;;;;;5103586;28;20492;-83
2023/11/23 05:59:34;;;;;;;29.87;19.30;;;9.00;99.90;;;;;;5102291;28;20889;-82
2023/11/23 06:02:05;;;;;;;31.03;19.07;;;9.00;99.90;;;;;;5102790;28;20452;-81
2023/11/23 06:04:32;;;;;;;29.97;20.53;;;9.10;99.90;;;;;;5102259;28;20491;-81
2023/11/23 06:06:59;;;;;;;28.03;19.50;;;9.10;99.90;;;;;;5101858;28;20466;-82
2023/11/23 06:09:27;;;;;;;27.90;20.03;;;9.10;99.90;;;;;;5102815;28;20483;-82
2023/11/23 06:11:54;;;;;;;26.23;19.00;;;9.10;99.90;;;;;;5101244;28;20837;-82
2023/11/23 06:14:21;;;;;;;25.17;17.13;;;9.20;99.90;;;;;;5103530;28;20455;-80
2023/11/23 06:16:48;;;;;;;28.20;20.73;;;9.20;99.90;;;;;;5103041;28;20484;-82
2023/11/23 06:19:14;;;;;;;28.27;19.50;;;9.20;99.90;;;;;;5103020;28;20468;-81
2023/11/23 06:21:41;;;;;;;26.50;18.77;;;9.30;99.90;;;;;;5100434;28;21004;-83
2023/11/23 06:24:09;;;;;;;27.30;18.77;;;9.30;99.90;;;;;;5095426;28;20889;-81
2023/11/23 06:26:37;;;;;;;25.27;19.60;;;9.30;99.90;;;;;;5093193;28;20480;-80
2023/11/23 06:29:04;;;;;;;27.40;19.83;;;9.30;99.90;;;;;;5092998;28;20474;-80
2023/11/23 06:31:31;;;;;;;28.13;19.37;;;9.30;99.90;;;;;;5096254;28;20479;-83
2023/11/23 06:33:58;;;;;;;27.37;18.77;;;9.40;99.90;;;;;;5095864;28;20455;-82
2023/11/23 06:36:25;;;;;;;23.30;18.23;;;9.40;99.90;;;;;;5101616;28;20480;-83
2023/11/23 06:38:52;;;;;;;27.87;18.80;;;9.40;99.90;;;;;;5100876;28;20450;-83
2023/11/23 06:41:19;;;;;;;27.40;19.90;;;9.40;99.90;;;;;;5100544;28;20540;-81
2023/11/23 06:43:48;;;;;;;23.70;18.67;;;9.40;99.90;;;;;;5100850;28;21177;-82
2023/11/23 06:46:28;;;;;;;22.43;17.40;;;9.40;99.90;;;;;;5100969;28;20530;-79
2023/11/23 06:48:57;;;;;;;32.30;19.90;;;9.50;99.90;;;;;;5103631;28;20460;-82
2023/11/23 06:51:23;;;;;;;25.20;19.37;;;9.50;99.90;;;;;;5097507;28;20536;-80
2023/11/23 06:53:50;;;;;;;24.83;18.20;;;9.50;99.90;;;;;;5095200;28;20552;-80
2023/11/23 06:56:17;;;;;;;31.20;19.67;;;9.50;99.90;;;;;;5095772;28;20620;-82
2023/11/23 06:58:46;;;;;;;27.80;20.30;;;9.50;99.90;;;;;;5094188;28;20522;-82
2023/11/23 07:01:15;;;;;;;26.30;18.30;;;9.50;99.90;;;;;;5095117;28;20484;-82
2023/11/23 07:03:42;;;;;;;29.20;18.13;;;9.50;99.90;;;;;;5089097;28;20514;-81
2023/11/23 07:06:10;;;;;;;30.20;21.03;;;9.50;99.90;;;;;;5091805;28;20508;-82
2023/11/23 07:08:39;;;;;;;27.97;20.00;;;9.50;99.90;;;;;;5081020;28;20442;-82
2023/11/23 07:11:06;;;;;;;26.40;19.90;;;9.50;99.90;;;;;;5090721;28;20968;-83
2023/11/23 07:13:34;;;;;;;25.33;18.53;;;9.50;99.90;;;;;;5089543;28;20514;-83
2023/11/23 07:16:01;;;;;;;26.40;19.23;;;9.60;99.90;;;;;;5087839;28;20473;-83
2023/11/23 07:18:29;;;;;;;28.23;20.20;;;9.60;99.90;;;;;;5082519;28;20448;-82
2023/11/23 07:20:57;;;;;;;28.43;19.50;;;9.60;99.90;;;;;;5079037;28;20449;-83
2023/11/23 07:23:24;;;;;;;25.77;20.37;;;9.50;99.90;;;;;;5089492;28;20501;-82
2023/11/23 07:25:52;;;;;;;27.43;19.37;;;9.60;99.90;;;;;;5088292;28;20517;-79
2023/11/23 07:28:21;;;;;;;32.43;22.20;;;9.60;99.90;;;;;;5096399;28;20515;-81
2023/11/23 07:30:48;;;;;;;29.00;20.63;;;9.60;99.90;;;;;;5100590;28;20457;-80
2023/11/23 07:33:17;;;;;;;29.07;20.30;;;9.70;99.90;;;;;;5093463;28;20459;-81
2023/11/23 07:35:46;;;;;;;25.00;20.60;;;9.70;99.90;;;;;;5088975;28;20446;-82
2023/11/23 07:38:13;;;;;;;29.70;23.00;;;9.70;99.90;;;;;;5089671;28;20529;-82
2023/11/23 07:40:41;;;;;;;29.37;20.00;;;9.70;99.90;;;;;;5087426;28;20456;-81
2023/11/23 07:43:10;;;;;;;30.53;22.60;;;9.60;99.90;;;;;;5086079;28;20466;-79
2023/11/23 07:45:37;;;;;;;29.00;22.43;;;9.60;99.90;;;;;;5088650;28;20454;-80
2023/11/23 07:48:08;;;;;;;24.47;19.57;;;9.70;99.90;;;;;;5095759;28;20457;-82
2023/11/23 07:50:35;;;;;;;25.30;18.80;;;9.80;99.90;;;;;;5096772;28;20462;-80
2023/11/23 07:53:07;;;;;;;24.80;19.60;;;9.80;99.90;;;;;;5092159;28;20457;-80
2023/11/23 07:55:34;;;;;;;26.67;19.90;;;9.80;99.90;;;;;;5085670;28;20454;-82
2023/11/23 07:58:01;;;;;;;31.73;21.00;;;9.90;99.90;;;;;;5084734;28;20709;-80
2023/11/23 08:00:29;;;;;;;27.17;19.80;;;9.90;99.90;;;;;;5087902;28;20457;-83
2023/11/23 08:02:55;;;;;;;27.70;21.97;;;9.90;99.90;;;;;;5087063;28;20517;-82
2023/11/23 08:05:23;;;;;;;30.83;20.00;;;10.00;99.90;;;;;;5092278;28;20645;-82
2023/11/23 08:07:50;;;;;;;24.20;18.03;;;10.00;99.90;;;;;;5098200;28;20477;-83
2023/11/23 08:10:19;;;;;;;27.83;19.57;;;10.00;99.90;;;;;;5092128;28;20484;-81
2023/11/23 08:12:46;;;;;;;25.17;19.40;;;10.10;99.90;;;;;;5090961;28;20450;-80
2023/11/23 08:15:13;;;;;;;25.40;18.70;;;10.20;99.90;;;;;;5082755;28;20864;-81
2023/11/23 08:17:40;;;;;;;25.43;18.27;;;10.20;99.90;;;;;;5092391;28;20488;-82
2023/11/23 08:20:09;;;;;;;27.10;19.60;;;10.10;99.90;;;;;;5085997;28;20455;-81
2023/11/23 08:22:36;;;;;;;26.07;19.57;;;10.10;99.90;;;;;;5091231;28;20462;-80
2023/11/23 08:25:03;;;;;;;28.97;17.63;;;10.20;99.90;;;;;;5091958;28;20518;-82
2023/11/23 08:27:31;;;;;;;29.17;20.13;;;10.20;99.90;;;;;;5082656;28;20485;-83
2023/11/23 08:29:58;;;;;;;28.97;18.77;;;10.30;99.90;;;;;;5089082;28;21032;-81
2023/11/23 08:32:24;;;;;;;24.13;18.20;;;10.30;99.90;;;;;;5089639;28;20459;-82
2023/11/23 08:34:52;;;;;;;25.57;18.10;;;10.30;99.90;;;;;;5090753;28;20449;-82
2023/11/23 08:37:19;;;;;;;22.10;17.73;;;10.30;99.90;;;;;;5088892;28;20466;-81
2023/11/23 08:39:46;;;;;;;26.90;18.30;;;10.40;99.90;;;;;;5092973;28;20454;-81
2023/11/23 08:42:14;;;;;;;21.60;17.20;;;10.40;99.90;;;;;;5081535;28;20921;-81
2023/11/23 08:44:43;;;;;;;29.33;17.57;;;10.40;99.90;;;;;;5084471;28;20485;-81
2023/11/23 08:47:09;;;;;;;21.30;17.07;;;10.30;99.90;;;;;;5085986;28;20510;-81
2023/11/23 08:49:36;;;;;;;20.90;17.90;;;10.30;99.90;;;;;;5084467;28;20454;-81
2023/11/23 08:52:03;;;;;;;23.80;18.20;;;10.30;99.90;;;;;;5089861;28;20486;-83
2023/11/23 08:54:30;;;;;;;25.70;17.40;;;10.40;99.90;;;;;;5091463;28;20455;-83
2023/11/23 08:56:58;;;;;;;21.83;17.57;;;10.40;99.90;;;;;;5093424;28;20483;-82
2023/11/23 08:59:25;;;;;;;25.63;17.50;;;10.40;99.90;;;;;;5091907;28;20548;-83
2023/11/23 09:01:53;;;;;;;21.93;17.37;;;10.40;99.90;;;;;;5089226;28;20949;-82
2023/11/23 09:04:20;;;;;;;24.60;16.67;;;10.40;99.90;;;;;;5098900;28;20480;-83
2023/11/23 09:06:47;;;;;;;65.70;35.73;;;10.40;99.90;;;;;;5096034;28;21062;-82
2023/11/23 09:09:14;;;;;;;20.73;15.80;;;10.50;99.90;;;;;;5094523;28;20884;-82
2023/11/23 09:11:41;;;;;;;25.77;18.30;;;10.50;99.90;;;;;;5091244;28;20827;-82
2023/11/23 09:14:09;;;;;;;21.83;16.97;;;10.50;99.90;;;;;;5095114;28;20457;-83
2023/11/23 09:16:35;;;;;;;26.40;20.83;;;10.60;99.90;;;;;;5098418;28;20534;-80
2023/11/23 09:19:04;;;;;;;230.00;96.40;;;10.60;99.90;;;;;;5094137;28;20452;-82
2023/11/23 09:21:30;;;;;;;28.07;19.83;;;10.60;99.90;;;;;;5096505;28;20522;-83
2023/11/23 09:23:57;;;;;;;19.93;15.50;;;10.70;99.90;;;;;;5099296;28;20495;-82
2023/11/23 09:26:24;;;;;;;29.27;16.43;;;10.70;99.90;;;;;;5092837;28;20509;-82
2023/11/23 09:28:51;;;;;;;19.97;15.90;;;10.70;99.90;;;;;;5090790;28;20465;-81
2023/11/23 09:31:18;;;;;;;19.43;15.30;;;10.80;99.90;;;;;;5093027;28;20462;-82
2023/11/23 09:33:45;;;;;;;18.10;15.90;;;10.70;99.90;;;;;;5099174;28;20439;-82
2023/11/23 09:36:14;;;;;;;18.37;15.00;;;10.80;99.90;;;;;;5102370;28;20509;-81
2023/11/23 09:38:42;;;;;;;20.27;16.00;;;10.70;99.90;;;;;;5099126;28;20473;-84
2023/11/23 09:41:18;;;;;;;16.60;14.70;;;10.70;99.90;;;;;;5092537;28;20508;-87
2023/11/23 09:43:48;;;;;;;20.63;15.63;;;10.80;99.90;;;;;;5101178;28;20454;-84
2023/11/23 09:46:46;;;;;;;18.47;14.50;;;10.80;99.90;;;;;;5105607;28;20511;-84
2023/11/23 09:49:35;;;;;;;16.80;13.87;;;10.80;99.90;;;;;;5103251;28;20533;-82
2023/11/23 09:52:54;;;;;;;19.90;14.73;;;10.80;99.90;;;;;;5102463;28;20843;-82
2023/11/23 09:55:25;;;;;;;18.90;15.17;;;10.70;99.90;;;;;;5091057;28;20462;-83
2023/11/23 09:57:53;;;;;;;20.03;14.80;;;10.80;99.90;;;;;;5100379;28;20998;-83
2023/11/23 10:00:21;;;;;;;22.43;14.80;;;10.80;99.90;;;;;;5102610;28;20450;-82
2023/11/23 10:02:49;;;;;;;19.00;14.57;;;10.70;99.90;;;;;;5097113;28;20450;-83
2023/11/23 10:05:18;;;;;;;22.73;14.80;;;10.80;99.90;;;;;;5095677;28;20491;-81
2023/11/23 10:07:47;;;;;;;18.13;14.17;;;10.80;99.90;;;;;;5097178;28;20872;-82
2023/11/23 10:10:15;;;;;;;20.83;14.70;;;10.80;99.90;;;;;;5101269;28;20467;-82
2023/11/23 10:12:44;;;;;;;19.73;13.50;;;10.80;99.90;;;;;;5100848;28;20451;-83
2023/11/23 10:15:12;;;;;;;19.27;13.73;;;10.80;99.90;;;;;;5099680;28;20458;-82
2023/11/23 10:17:41;;;;;;;18.33;14.93;;;10.80;99.90;;;;;;5100765;28;20585;-84
2023/11/23 10:20:10;;;;;;;17.60;15.10;;;10.80;99.90;;;;;;5100107;28;20484;-84
2023/11/23 10:22:37;;;;;;;20.57;14.37;;;10.90;99.90;;;;;;5100770;28;20454;-83
2023/11/23 10:25:06;;;;;;;26.07;15.97;;;10.80;99.90;;;;;;5100827;28;20496;-83
2023/11/23 10:27:35;;;;;;;19.10;15.10;;;10.80;99.90;;;;;;5099782;28;20544;-85
2023/11/23 10:30:06;;;;;;;20.90;16.47;;;10.80;99.90;;;;;;5096300;28;20464;-84
2023/11/23 10:32:36;;;;;;;21.93;16.10;;;10.80;99.90;;;;;;5101275;28;20457;-83
2023/11/23 10:35:09;;;;;;;23.27;17.13;;;10.80;99.90;;;;;;5093032;28;20463;-84
2023/11/23 10:37:39;;;;;;;18.47;16.47;;;10.80;99.90;;;;;;5096885;28;20471;-84
2023/11/23 10:40:08;;;;;;;23.37;16.40;;;10.80;99.90;;;;;;5098699;28;20464;-83
2023/11/23 10:42:36;;;;;;;22.67;17.67;;;10.70;99.90;;;;;;5099428;28;20443;-82
2023/11/23 10:45:07;;;;;;;27.60;18.50;;;10.80;99.90;;;;;;5101084;28;20478;-82
2023/11/23 10:47:37;;;;;;;24.00;17.50;;;10.80;99.90;;;;;;5097879;28;20470;-85
2023/11/23 10:50:07;;;;;;;23.43;17.77;;;10.80;99.90;;;;;;5098980;28;20482;-83
2023/11/23 10:52:36;;;;;;;23.70;18.40;;;10.80;99.90;;;;;;5098695;28;20450;-83
2023/11/23 10:55:04;;;;;;;23.53;16.20;;;10.80;99.90;;;;;;5093372;28;20529;-83
2023/11/23 10:57:32;;;;;;;24.60;18.20;;;10.80;99.90;;;;;;5098189;28;20485;-82
2023/11/23 10:59:59;;;;;;;23.37;19.00;;;10.80;99.90;;;;;;5099088;28;20454;-83
2023/11/23 11:02:28;;;;;;;20.17;17.77;;;10.80;99.90;;;;;;5099667;28;20510;-83
2023/11/23 11:04:58;;;;;;;27.93;20.13;;;10.80;99.90;;;;;;5099498;28;20939;-84
2023/11/23 11:07:27;;;;;;;22.60;19.27;;;10.80;99.90;;;;;;5099497;28;20570;-83
2023/11/23 11:09:59;;;;;;;24.10;19.83;;;10.80;99.90;;;;;;5098392;28;20458;-85
2023/11/23 11:12:36;;;;;;;27.40;19.83;;;10.80;99.90;;;;;;5096148;28;20479;-83
2023/11/23 11:15:06;;;;;;;21.87;19.53;;;10.70;99.90;;;;;;5089453;28;20455;-83
2023/11/23 11:17:38;;;;;;;25.50;17.53;;;10.70;99.90;;;;;;5096328;28;20497;-83
2023/11/23 11:20:10;;;;;;;20.37;18.00;;;10.80;99.90;;;;;;5096605;28;20458;-84
2023/11/23 11:22:37;;;;;;;23.20;17.10;;;10.80;99.90;;;;;;5097355;28;20892;-83
2023/11/23 11:25:04;;;;;;;23.33;18.40;;;10.80;99.90;;;;;;5096306;28;20490;-82
2023/11/23 11:27:34;;;;;;;25.20;18.20;;;10.70;99.90;;;;;;5096647;28;20478;-83
2023/11/23 11:30:01;;;;;;;23.33;18.70;;;10.80;99.90;;;;;;5089250;28;20586;-83
2023/11/23 11:32:33;;;;;;;20.67;17.30;;;10.80;99.90;;;;;;5087178;28;20449;-84
2023/11/23 11:35:05;;;;;;;23.03;17.40;;;10.80;99.90;;;;;;5094248;28;20829;-83
2023/11/23 11:37:32;;;;;;;23.13;16.97;;;10.80;99.90;;;;;;5092106;28;20473;-84
2023/11/23 11:40:01;;;;;;;21.33;15.90;;;10.80;99.90;;;;;;5096752;28;20977;-84
2023/11/23 11:42:29;;;;;;;19.40;15.07;;;10.90;99.90;;;;;;5096977;28;20457;-84
2023/11/23 11:44:56;;;;;;;22.23;14.60;;;10.90;99.90;;;;;;5095135;28;20573;-83
2023/11/23 11:47:23;;;;;;;15.70;14.10;;;10.90;99.90;;;;;;5093337;28;20514;-84
2023/11/23 11:49:50;;;;;;;23.00;15.67;;;11.00;99.90;;;;;;5097716;28;20461;-83
2023/11/23 11:52:18;;;;;;;15.83;14.13;;;11.00;99.90;;;;;;5096146;28;20470;-86
2023/11/23 11:54:47;;;;;;;18.77;13.70;;;11.00;99.90;;;;;;5097547;28;20453;-83
2023/11/23 11:57:14;;;;;;;14.20;12.10;;;11.00;99.90;;;;;;5097850;28;20483;-84
2023/11/23 11:59:44;;;;;;;14.60;12.90;;;11.10;99.90;;;;;;5096056;28;20449;-84
2023/11/23 12:02:10;;;;;;;14.90;12.10;;;11.10;99.90;;;;;;5097106;28;20522;-84
2023/11/23 12:04:38;;;;;;;18.20;13.63;;;11.20;99.90;;;;;;5098530;28;20510;-83
2023/11/23 12:07:12;;;;;;;15.10;12.20;;;11.20;99.90;;;;;;5097603;28;20556;-84
2023/11/23 12:09:41;;;;;;;20.37;13.87;;;11.20;99.90;;;;;;5097634;28;20517;-83
2023/11/23 12:12:10;;;;;;;13.00;11.77;;;11.20;99.90;;;;;;5089878;28;20457;-84
2023/11/23 12:14:37;;;;;;;14.70;13.00;;;11.20;99.90;;;;;;5097150;28;20458;-84
2023/11/23 12:17:10;;;;;;;14.20;11.90;;;11.20;99.90;;;;;;5096534;28;21010;-84
2023/11/23 12:19:37;;;;;;;13.47;12.07;;;11.20;99.90;;;;;;5091295;28;20440;-84
2023/11/23 12:22:04;;;;;;;13.53;12.23;;;11.30;99.90;;;;;;5096827;28;20459;-84
2023/11/23 12:24:31;;;;;;;14.37;10.80;;;11.30;99.90;;;;;;5097353;28;20534;-84
2023/11/23 12:26:59;;;;;;;14.63;11.13;;;11.30;99.90;;;;;;5097063;28;20530;-84
2023/11/23 12:29:29;;;;;;;11.50;10.40;;;11.30;99.90;;;;;;5101472;28;20469;-84
2023/11/23 12:31:58;;;;;;;11.97;10.80;;;11.40;99.90;;;;;;5101107;28;20490;-82
2023/11/23 12:34:26;;;;;;;12.30;10.80;;;11.40;99.90;;;;;;5102104;28;20450;-84
2023/11/23 12:36:57;;;;;;;12.10;10.80;;;11.40;99.90;;;;;;5100243;28;21006;-83
2023/11/23 12:39:24;;;;;;;15.37;10.43;;;11.30;99.90;;;;;;5100870;28;20476;-85